Time;durP1;ratioP1;P1;durP2;ratioP2;P2;SDS_P1;SDS_P2;PMS_P1;PMS_P2;Temp;Humidity;BMP_temperature;BMP_pressure;BME280_temperature;BME280_humidity;BME280_pressure;Samples;Min_cycle;Max_cycle;Signal;HPM_P1;HPM_P2
2023/09/09 00:02:05;;;;;;;11.10;10.00;;;13.10;99.90;;;;;;4917776;29;20222;-70
2023/09/09 00:04:31;;;;;;;12.43;9.73;;;13.10;99.90;;;;;;4917725;29;20587;-70
2023/09/09 00:07:02;;;;;;;11.73;9.87;;;13.30;99.90;;;;;;4917745;29;20254;-70
2023/09/09 00:09:29;;;;;;;12.50;9.50;;;13.20;99.90;;;;;;4917476;29;20202;-70
2023/09/09 00:11:57;;;;;;;10.03;9.03;;;13.00;99.90;;;;;;4917393;29;20207;-70
2023/09/09 00:14:25;;;;;;;10.63;9.53;;;13.10;99.90;;;;;;4917514;29;20210;-70
2023/09/09 00:16:52;;;;;;;11.37;10.20;;;13.20;99.90;;;;;;4917463;29;20203;-70
2023/09/09 00:19:21;;;;;;;12.80;9.80;;;13.00;99.90;;;;;;4917368;29;20202;-70
2023/09/09 00:21:49;;;;;;;13.13;10.47;;;12.80;99.90;;;;;;4917205;29;20207;-70
2023/09/09 00:24:16;;;;;;;13.40;10.17;;;12.80;99.90;;;;;;4917181;29;20686;-70
2023/09/09 00:26:43;;;;;;;10.70;9.60;;;12.70;99.90;;;;;;4917251;29;20202;-69
2023/09/09 00:29:10;;;;;;;11.57;9.43;;;12.50;99.90;;;;;;4917397;29;20211;-70
2023/09/09 00:31:37;;;;;;;11.97;9.80;;;12.40;99.90;;;;;;4917257;29;20207;-70
2023/09/09 00:34:04;;;;;;;11.17;9.97;;;12.40;99.90;;;;;;4917158;29;20562;-70
2023/09/09 00:36:30;;;;;;;12.10;10.23;;;12.50;99.90;;;;;;4916794;29;20206;-70
2023/09/09 00:38:58;;;;;;;15.53;11.00;;;12.40;99.90;;;;;;4917012;29;20203;-69
2023/09/09 00:41:25;;;;;;;13.63;10.47;;;12.40;99.90;;;;;;4917218;29;20710;-70
2023/09/09 00:43:53;;;;;;;14.93;10.63;;;12.30;99.90;;;;;;4916857;29;20233;-70
2023/09/09 00:46:21;;;;;;;12.07;10.77;;;12.40;99.90;;;;;;4916836;29;20706;-70
2023/09/09 00:48:47;;;;;;;11.87;10.37;;;12.50;99.90;;;;;;4916799;29;20206;-70
2023/09/09 00:51:14;;;;;;;14.67;11.20;;;12.70;99.90;;;;;;4916599;29;20653;-70
2023/09/09 00:53:41;;;;;;;12.07;10.53;;;12.70;99.90;;;;;;4916709;29;20282;-70
2023/09/09 00:56:09;;;;;;;11.60;10.40;;;12.50;99.90;;;;;;4916823;29;20210;-70
2023/09/09 00:58:36;;;;;;;11.80;10.30;;;12.40;99.90;;;;;;4916829;29;20237;-69
2023/09/09 01:01:03;;;;;;;12.00;10.17;;;12.30;99.90;;;;;;4916446;29;20257;-69
2023/09/09 01:03:32;;;;;;;12.93;10.47;;;12.20;99.90;;;;;;4916668;29;20231;-70
2023/09/09 01:05:59;;;;;;;11.80;10.70;;;12.10;99.90;;;;;;4916618;29;20282;-70
2023/09/09 01:08:26;;;;;;;11.60;10.40;;;12.10;99.90;;;;;;4916890;29;20202;-70
2023/09/09 01:10:53;;;;;;;11.17;10.07;;;12.00;99.90;;;;;;4916825;29;20206;-70
2023/09/09 01:13:20;;;;;;;14.07;10.23;;;11.90;99.90;;;;;;4916640;29;20206;-70
2023/09/09 01:15:46;;;;;;;11.10;10.00;;;12.00;99.90;;;;;;4916645;29;20259;-70
2023/09/09 01:18:13;;;;;;;13.97;10.50;;;12.00;99.90;;;;;;4916485;29;20262;-70
2023/09/09 01:20:48;;;;;;;15.50;10.27;;;11.90;99.90;;;;;;4916358;29;20678;-70
2023/09/09 01:23:16;;;;;;;15.83;11.17;;;12.00;99.90;;;;;;4916635;29;20332;-70
2023/09/09 01:25:43;;;;;;;12.40;11.20;;;12.00;99.90;;;;;;4916535;29;20206;-70
2023/09/09 01:28:09;;;;;;;12.67;11.03;;;11.90;99.90;;;;;;4916487;29;20210;-69
2023/09/09 01:30:36;;;;;;;12.33;11.10;;;12.10;99.90;;;;;;4916421;29;20208;-70
2023/09/09 01:33:03;;;;;;;12.37;11.07;;;12.20;99.90;;;;;;4916545;29;20713;-70
2023/09/09 01:35:30;;;;;;;12.63;11.33;;;12.10;99.90;;;;;;4916602;29;20258;-70
2023/09/09 01:37:57;;;;;;;14.53;12.17;;;12.00;99.90;;;;;;4916683;29;20258;-70
2023/09/09 01:40:25;;;;;;;14.00;12.50;;;12.10;99.90;;;;;;4916411;29;20203;-70
2023/09/09 01:42:51;;;;;;;13.70;12.30;;;12.00;99.90;;;;;;4916250;29;20218;-69
2023/09/09 01:45:18;;;;;;;13.67;12.33;;;11.90;99.90;;;;;;4916318;29;20203;-70
2023/09/09 01:47:45;;;;;;;16.13;12.83;;;11.80;99.90;;;;;;4916263;29;20257;-70
2023/09/09 01:50:11;;;;;;;17.60;13.40;;;11.80;99.90;;;;;;4916399;29;20206;-70
2023/09/09 01:52:38;;;;;;;13.57;12.27;;;11.70;99.90;;;;;;4916323;29;20206;-70
2023/09/09 01:55:05;;;;;;;15.40;13.53;;;11.70;99.90;;;;;;4916023;29;20289;-70
2023/09/09 01:57:33;;;;;;;15.57;12.67;;;11.60;99.90;;;;;;4916219;29;20266;-70
2023/09/09 01:59:59;;;;;;;14.63;13.03;;;11.70;99.90;;;;;;4916098;29;20257;-70
2023/09/09 02:02:26;;;;;;;14.80;13.30;;;11.70;99.90;;;;;;4916004;29;20678;-70
2023/09/09 02:04:53;;;;;;;15.70;14.10;;;11.60;99.90;;;;;;4916287;29;20565;-70
2023/09/09 02:07:19;;;;;;;14.70;13.30;;;11.80;99.90;;;;;;4916431;29;20254;-70
2023/09/09 02:09:47;;;;;;;16.00;12.93;;;11.70;99.90;;;;;;4916131;29;20203;-70
2023/09/09 02:12:13;;;;;;;14.77;13.17;;;11.60;99.90;;;;;;4918203;29;20278;-70
2023/09/09 02:14:41;;;;;;;14.87;13.03;;;11.50;99.90;;;;;;4919678;29;20258;-70
2023/09/09 02:17:08;;;;;;;16.47;13.73;;;11.40;99.90;;;;;;4919643;29;20207;-70
2023/09/09 02:19:36;;;;;;;15.33;13.43;;;11.50;99.90;;;;;;4919710;29;20202;-70
2023/09/09 02:22:03;;;;;;;15.27;13.67;;;11.60;99.90;;;;;;4919627;29;20210;-70
2023/09/09 02:24:29;;;;;;;15.20;13.70;;;12.00;99.90;;;;;;4919580;29;20697;-70
2023/09/09 02:26:56;;;;;;;14.50;12.97;;;12.00;99.90;;;;;;4919466;29;20543;-69
2023/09/09 02:29:23;;;;;;;19.00;13.07;;;12.00;99.90;;;;;;4919293;29;20210;-69
2023/09/09 02:31:51;;;;;;;15.03;11.97;;;11.90;99.90;;;;;;4919552;29;20206;-70
2023/09/09 02:34:17;;;;;;;14.23;12.83;;;11.70;99.90;;;;;;4919242;29;20678;-70
2023/09/09 02:36:45;;;;;;;14.07;12.63;;;11.60;99.90;;;;;;4919329;29;20206;-70
2023/09/09 02:39:12;;;;;;;14.47;12.97;;;11.60;99.90;;;;;;4919276;29;20207;-70
2023/09/09 02:41:38;;;;;;;14.60;12.70;;;11.60;99.90;;;;;;4919043;29;20773;-70
2023/09/09 02:44:06;;;;;;;13.80;12.00;;;11.80;99.90;;;;;;4918928;29;20230;-70
2023/09/09 02:46:32;;;;;;;14.30;12.63;;;11.90;99.90;;;;;;4919238;29;20198;-70
2023/09/09 02:49:00;;;;;;;15.83;12.60;;;11.90;99.90;;;;;;4919148;29;20238;-70
2023/09/09 02:51:27;;;;;;;13.63;12.23;;;11.90;99.90;;;;;;4919075;29;20202;-70
2023/09/09 02:53:53;;;;;;;14.93;11.77;;;11.90;99.90;;;;;;4918816;29;20265;-70
2023/09/09 02:56:20;;;;;;;13.23;11.83;;;12.00;99.90;;;;;;4918889;29;20206;-70
2023/09/09 02:58:47;;;;;;;12.80;11.43;;;12.00;99.90;;;;;;4918979;29;20254;-70
2023/09/09 03:01:13;;;;;;;13.40;10.60;;;11.90;99.90;;;;;;4918977;29;20638;-70
2023/09/09 03:03:40;;;;;;;12.23;10.27;;;12.00;99.90;;;;;;4918761;29;20222;-70
2023/09/09 03:06:11;;;;;;;11.90;10.70;;;12.00;99.90;;;;;;4918762;29;20202;-70
2023/09/09 03:08:37;;;;;;;11.63;10.27;;;11.90;99.90;;;;;;4918656;29;20203;-69
2023/09/09 03:11:04;;;;;;;12.00;10.90;;;11.90;99.90;;;;;;4918420;29;20246;-70
2023/09/09 03:13:30;;;;;;;11.27;10.13;;;11.90;99.90;;;;;;4918992;29;20242;-70
2023/09/09 03:15:57;;;;;;;12.87;11.17;;;11.90;99.90;;;;;;4918687;29;20634;-70
2023/09/09 03:18:24;;;;;;;13.60;10.67;;;11.90;99.90;;;;;;4918412;29;20666;-69
2023/09/09 03:20:50;;;;;;;12.53;11.30;;;11.90;99.90;;;;;;4918487;29;20213;-70
2023/09/09 03:23:18;;;;;;;15.60;10.87;;;11.90;99.90;;;;;;4917992;29;20218;-70
2023/09/09 03:25:45;;;;;;;12.20;11.00;;;11.90;99.90;;;;;;4918493;29;20199;-70
2023/09/09 03:28:11;;;;;;;12.30;11.00;;;11.80;99.90;;;;;;4918425;29;20261;-70
2023/09/09 03:30:54;;;;;;;12.60;11.40;;;11.80;99.90;;;;;;4918396;29;20206;-70
2023/09/09 03:33:20;;;;;;;12.00;10.90;;;11.80;99.90;;;;;;4918266;29;20213;-70
2023/09/09 03:35:47;;;;;;;12.37;11.07;;;11.70;99.90;;;;;;4918177;29;20615;-70
2023/09/09 03:38:13;;;;;;;12.07;10.90;;;11.70;99.90;;;;;;4918339;29;20198;-70
2023/09/09 03:40:42;;;;;;;13.63;11.83;;;11.60;99.90;;;;;;4918209;29;20255;-70
2023/09/09 03:43:09;;;;;;;12.60;11.30;;;11.50;99.90;;;;;;4917826;29;20647;-70
2023/09/09 03:45:35;;;;;;;14.67;12.23;;;11.50;99.90;;;;;;4918239;29;20258;-70
2023/09/09 03:48:04;;;;;;;13.17;11.77;;;11.50;99.90;;;;;;4917989;29;20257;-70
2023/09/09 03:50:30;;;;;;;12.57;11.27;;;11.50;99.90;;;;;;4917797;29;20225;-70
2023/09/09 03:52:57;;;;;;;14.93;11.93;;;11.60;99.90;;;;;;4917999;29;20214;-70
2023/09/09 03:55:24;;;;;;;14.00;12.17;;;11.60;99.90;;;;;;4917826;29;20619;-70
2023/09/09 03:57:52;;;;;;;14.63;12.83;;;11.60;99.90;;;;;;4917811;29;20203;-70
2023/09/09 04:00:19;;;;;;;13.60;12.17;;;11.60;99.90;;;;;;4917917;29;20737;-70
2023/09/09 04:02:46;;;;;;;13.50;12.10;;;11.50;99.90;;;;;;4917744;29;20258;-70
2023/09/09 04:05:12;;;;;;;13.40;11.90;;;11.40;99.90;;;;;;4917671;29;20230;-70
2023/09/09 04:07:43;;;;;;;15.50;12.93;;;11.40;99.90;;;;;;4917505;29;20686;-70
2023/09/09 04:10:10;;;;;;;13.57;12.27;;;11.50;99.90;;;;;;4917634;29;20621;-70
2023/09/09 04:12:37;;;;;;;13.30;11.90;;;11.50;99.90;;;;;;4917464;29;20257;-70
2023/09/09 04:15:06;;;;;;;13.97;12.27;;;11.40;99.90;;;;;;4917368;29;20214;-70
2023/09/09 04:17:33;;;;;;;13.60;12.27;;;11.30;99.90;;;;;;4917250;29;20650;-70
2023/09/09 04:19:59;;;;;;;13.50;12.20;;;11.30;99.90;;;;;;4917235;29;20234;-70
2023/09/09 04:22:26;;;;;;;13.50;12.20;;;11.40;99.90;;;;;;4917404;29;20198;-70
2023/09/09 04:24:54;;;;;;;14.20;12.37;;;11.30;99.90;;;;;;4917230;29;20231;-70
2023/09/09 04:27:20;;;;;;;15.53;11.63;;;11.20;99.90;;;;;;4917233;29;20203;-70
2023/09/09 04:29:47;;;;;;;14.20;12.43;;;11.30;99.90;;;;;;4917201;29;20203;-70
2023/09/09 04:32:15;;;;;;;14.20;11.93;;;11.30;99.90;;;;;;4917007;29;20202;-70
2023/09/09 04:34:41;;;;;;;13.27;11.97;;;11.30;99.90;;;;;;4916751;29;20207;-70
2023/09/09 04:37:08;;;;;;;13.97;12.50;;;11.20;99.90;;;;;;4917194;29;20263;-70
2023/09/09 04:39:35;;;;;;;12.93;11.63;;;11.20;99.90;;;;;;4917134;29;20561;-70
2023/09/09 04:42:01;;;;;;;12.27;11.07;;;11.30;99.90;;;;;;4917059;29;20261;-70
2023/09/09 04:44:28;;;;;;;13.13;11.77;;;11.30;99.90;;;;;;4916794;29;20282;-70
2023/09/09 04:46:55;;;;;;;12.97;11.67;;;11.40;99.90;;;;;;4916821;29;20680;-69
2023/09/09 04:49:23;;;;;;;13.87;12.00;;;11.50;99.90;;;;;;4916978;29;20202;-69
2023/09/09 04:51:49;;;;;;;12.07;10.93;;;11.40;99.90;;;;;;4916952;29;20202;-69
2023/09/09 04:54:18;;;;;;;13.80;11.77;;;11.30;99.90;;;;;;4916801;29;20234;-69
2023/09/09 04:56:46;;;;;;;14.80;11.93;;;11.20;99.90;;;;;;4916712;29;20198;-69
2023/09/09 04:59:13;;;;;;;15.73;11.80;;;11.20;99.90;;;;;;4916710;29;20201;-69
2023/09/09 05:01:39;;;;;;;13.97;12.47;;;11.30;99.90;;;;;;4916699;29;20282;-69
2023/09/09 05:04:07;;;;;;;18.63;15.07;;;11.40;99.90;;;;;;4916683;29;20230;-69
2023/09/09 05:06:35;;;;;;;23.07;15.30;;;11.50;99.90;;;;;;4916605;29;20725;-69
2023/09/09 05:09:02;;;;;;;18.23;14.27;;;11.60;99.90;;;;;;4916833;29;20227;-69
2023/09/09 05:11:28;;;;;;;14.90;12.93;;;11.60;99.90;;;;;;4916495;29;20254;-69
2023/09/09 05:13:55;;;;;;;15.53;12.70;;;11.70;99.90;;;;;;4916441;29;20206;-69
2023/09/09 05:16:21;;;;;;;16.20;13.10;;;11.70;99.90;;;;;;4916648;29;20231;-69
2023/09/09 05:18:48;;;;;;;14.33;12.60;;;11.80;99.90;;;;;;4916851;29;20203;-69
2023/09/09 05:21:15;;;;;;;13.63;12.10;;;11.90;99.90;;;;;;4916557;29;20238;-70
2023/09/09 05:23:42;;;;;;;14.30;12.80;;;12.00;99.90;;;;;;4916338;29;20293;-70
2023/09/09 05:26:09;;;;;;;15.33;12.27;;;12.00;99.90;;;;;;4916453;29;20259;-69
2023/09/09 05:28:36;;;;;;;12.90;11.60;;;12.10;99.90;;;;;;4916492;29;20717;-70
2023/09/09 05:31:05;;;;;;;13.10;11.63;;;12.20;99.90;;;;;;4916469;29;20206;-69
2023/09/09 05:33:32;;;;;;;15.23;12.60;;;12.30;99.90;;;;;;4916433;29;20202;-69
2023/09/09 05:35:59;;;;;;;13.03;11.30;;;12.30;99.90;;;;;;4916327;29;20234;-70
2023/09/09 05:38:26;;;;;;;13.33;11.07;;;12.40;99.90;;;;;;4916213;29;20650;-70
2023/09/09 05:40:54;;;;;;;12.97;11.67;;;12.50;99.90;;;;;;4916058;29;20209;-69
2023/09/09 05:43:21;;;;;;;13.47;12.10;;;12.50;99.90;;;;;;4916048;29;20650;-69
2023/09/09 05:45:48;;;;;;;12.13;10.93;;;12.60;99.90;;;;;;4916449;29;20204;-69
2023/09/09 05:48:14;;;;;;;12.23;11.10;;;12.60;99.90;;;;;;4919652;29;20654;-69
2023/09/09 05:50:41;;;;;;;15.00;12.00;;;12.80;99.90;;;;;;4919961;29;20722;-69
2023/09/09 05:53:08;;;;;;;12.87;11.57;;;12.80;99.90;;;;;;4919837;29;20602;-69
2023/09/09 05:55:34;;;;;;;11.93;10.37;;;12.90;99.90;;;;;;4919634;29;20203;-69
2023/09/09 05:58:02;;;;;;;12.30;11.10;;;13.00;99.90;;;;;;4920063;29;20606;-70
2023/09/09 06:00:29;;;;;;;12.93;11.33;;;13.10;99.90;;;;;;4919844;29;20198;-69
2023/09/09 06:02:55;;;;;;;14.03;11.10;;;13.10;99.90;;;;;;4919745;29;20654;-70
2023/09/09 06:05:22;;;;;;;12.80;11.00;;;13.10;99.90;;;;;;4919683;29;20780;-71
2023/09/09 06:07:49;;;;;;;16.17;12.13;;;13.30;99.90;;;;;;4919681;29;20547;-69
2023/09/09 06:10:15;;;;;;;15.87;11.47;;;13.40;99.90;;;;;;4919494;29;20718;-69
2023/09/09 06:12:42;;;;;;;14.03;12.20;;;13.50;99.90;;;;;;4919758;29;20206;-69
2023/09/09 06:15:11;;;;;;;13.07;11.67;;;13.60;99.90;;;;;;4919652;29;20206;-69
2023/09/09 06:17:39;;;;;;;12.97;11.67;;;13.70;99.90;;;;;;4919587;29;20242;-69
2023/09/09 06:20:07;;;;;;;12.57;11.03;;;13.90;99.90;;;;;;4919454;29;20207;-70
2023/09/09 06:22:34;;;;;;;13.97;11.77;;;13.90;99.90;;;;;;4919339;29;20202;-69
2023/09/09 06:25:01;;;;;;;13.10;11.90;;;14.10;99.90;;;;;;4919395;29;20713;-69
2023/09/09 06:27:28;;;;;;;12.83;11.53;;;14.20;99.90;;;;;;4919388;29;20261;-69
2023/09/09 06:29:54;;;;;;;12.77;11.37;;;14.20;99.90;;;;;;4919365;29;20208;-69
2023/09/09 06:32:22;;;;;;;13.53;12.13;;;14.40;99.90;;;;;;4919175;29;20202;-69
2023/09/09 06:34:49;;;;;;;12.03;10.83;;;14.50;99.90;;;;;;4919195;29;20214;-70
2023/09/09 06:37:16;;;;;;;13.63;11.10;;;14.60;99.90;;;;;;4919068;29;20718;-70
2023/09/09 06:39:42;;;;;;;12.43;11.13;;;14.70;99.90;;;;;;4919100;29;20203;-69
2023/09/09 06:42:09;;;;;;;11.70;10.50;;;14.80;99.90;;;;;;4919212;29;20202;-69
2023/09/09 06:44:35;;;;;;;13.25;11.88;;;14.90;99.90;;;;;;4919280;29;20222;-69
2023/09/09 06:47:02;;;;;;;12.63;11.43;;;15.10;99.90;;;;;;4918969;29;20206;-69
2023/09/09 06:49:30;;;;;;;12.95;11.55;;;15.20;99.90;;;;;;4918903;29;20206;-69
2023/09/09 06:51:57;;;;;;;13.88;12.48;;;15.40;99.90;;;;;;4918782;29;20206;-70
2023/09/09 06:54:23;;;;;;;11.38;10.30;;;15.50;99.90;;;;;;4919595;29;20724;-70
2023/09/09 06:56:50;;;;;;;13.02;11.63;;;15.70;99.90;;;;;;4918612;29;20261;-70
2023/09/09 06:59:16;;;;;;;12.95;11.63;;;15.90;99.90;;;;;;4918639;29;20266;-70
2023/09/09 07:01:43;;;;;;;13.20;11.25;;;16.10;99.90;;;;;;4918560;29;20662;-70
2023/09/09 07:04:09;;;;;;;12.57;11.20;;;16.30;99.90;;;;;;4918533;29;20294;-71
2023/09/09 07:06:37;;;;;;;12.40;11.20;;;16.50;99.90;;;;;;4918830;29;20199;-70
2023/09/09 07:09:04;;;;;;;11.85;10.52;;;16.70;99.90;;;;;;4918652;29;20606;-70
2023/09/09 07:11:30;;;;;;;12.25;11.07;;;16.90;99.90;;;;;;4918607;29;20202;-70
2023/09/09 07:13:58;;;;;;;12.60;11.40;;;17.10;99.90;;;;;;4918624;29;20603;-70
2023/09/09 07:16:24;;;;;;;12.20;10.63;;;17.30;99.90;;;;;;4918489;29;20658;-70
2023/09/09 07:18:51;;;;;;;13.27;11.88;;;17.50;99.90;;;;;;4918704;29;20293;-70
2023/09/09 07:21:17;;;;;;;12.70;11.40;;;17.60;99.90;;;;;;4918569;29;20202;-70
2023/09/09 07:23:45;;;;;;;12.68;11.38;;;17.90;99.90;;;;;;4918406;29;20258;-71
2023/09/09 07:26:12;;;;;;;10.95;9.95;;;18.00;99.90;;;;;;4918038;29;20760;-70
2023/09/09 07:28:38;;;;;;;11.63;10.43;;;18.30;99.90;;;;;;4918191;29;20202;-70
2023/09/09 07:31:05;;;;;;;11.93;10.63;;;18.50;99.90;;;;;;4918264;29;20202;-71
2023/09/09 07:33:32;;;;;;;13.23;10.25;;;18.80;99.90;;;;;;4918118;29;20211;-70
2023/09/09 07:35:58;;;;;;;13.63;10.00;;;19.00;99.90;;;;;;4918464;29;20207;-71
2023/09/09 07:38:25;;;;;;;11.07;9.98;;;19.20;99.90;;;;;;4918377;29;20265;-71
2023/09/09 07:40:57;;;;;;;12.77;10.80;;;19.30;99.90;;;;;;4918267;29;20250;-72
2023/09/09 07:43:23;;;;;;;11.52;10.43;;;19.60;99.90;;;;;;4918070;29;20203;-71
2023/09/09 07:45:51;;;;;;;11.15;9.77;;;19.80;99.90;;;;;;4917863;29;20222;-71
2023/09/09 07:48:17;;;;;;;10.85;9.75;;;20.00;99.90;;;;;;4917955;29;20658;-72
2023/09/09 07:50:50;;;;;;;11.20;10.00;;;20.30;99.90;;;;;;4918064;29;20198;-72
2023/09/09 07:53:17;;;;;;;10.77;9.68;;;20.60;99.90;;;;;;4917756;29;20206;-72
2023/09/09 07:55:44;;;;;;;11.32;9.68;;;20.80;99.90;;;;;;4917854;29;20201;-72
2023/09/09 07:58:12;;;;;;;10.02;9.13;;;20.90;99.90;;;;;;4917546;29;20248;-72
2023/09/09 08:00:41;;;;;;;9.43;8.52;;;21.20;99.90;;;;;;4917781;29;20210;-72
2023/09/09 08:03:07;;;;;;;9.68;8.70;;;21.50;99.90;;;;;;4917721;29;20685;-72
2023/09/09 08:05:34;;;;;;;10.82;8.68;;;21.60;99.90;;;;;;4917522;29;20230;-72
2023/09/09 08:08:00;;;;;;;10.20;8.82;;;21.90;99.90;;;;;;4917514;29;20254;-71
2023/09/09 08:10:27;;;;;;;10.63;9.02;;;22.00;99.90;;;;;;4916707;29;20203;-71
2023/09/09 08:12:54;;;;;;;9.68;8.82;;;22.30;99.90;;;;;;4917304;29;20210;-72
2023/09/09 08:15:22;;;;;;;8.93;8.02;;;22.50;99.90;;;;;;4917617;29;20210;-72
2023/09/09 08:17:49;;;;;;;8.65;7.75;;;22.70;99.90;;;;;;4917506;29;20207;-71
2023/09/09 08:20:15;;;;;;;9.23;8.32;;;22.90;99.90;;;;;;4917057;29;20580;-71
2023/09/09 08:22:43;;;;;;;10.35;8.18;;;23.20;99.90;;;;;;4917382;29;20391;-72
2023/09/09 08:25:09;;;;;;;9.77;7.88;;;23.40;99.90;;;;;;4917116;29;20583;-71
2023/09/09 08:27:36;;;;;;;9.30;8.40;;;23.60;99.90;;;;;;4917174;29;20199;-72
2023/09/09 08:30:03;;;;;;;9.77;8.77;;;23.70;99.90;;;;;;4917187;29;20721;-71
2023/09/09 08:32:30;;;;;;;10.85;7.97;;;23.80;99.90;;;;;;4917330;29;20250;-72
2023/09/09 08:34:59;;;;;;;9.00;8.20;;;24.00;99.90;;;;;;4917166;29;20210;-71
2023/09/09 08:37:25;;;;;;;9.73;8.73;;;24.30;99.90;;;;;;4916847;29;20661;-72
2023/09/09 08:39:53;;;;;;;8.80;8.10;;;24.40;99.90;;;;;;4916865;29;20235;-72
2023/09/09 08:42:31;;;;;;;10.48;7.70;;;24.70;99.90;;;;;;4916892;29;20206;-72
2023/09/09 08:45:05;;;;;;;10.13;8.00;;;24.90;99.90;;;;;;4916851;29;20689;-72
2023/09/09 08:47:39;;;;;;;9.65;8.30;;;25.00;99.90;;;;;;4917088;29;20201;-72
2023/09/09 08:50:08;;;;;;;8.85;8.05;;;25.30;99.90;;;;;;4916880;29;20554;-73
2023/09/09 08:52:35;;;;;;;9.15;8.25;;;25.70;99.90;;;;;;4916902;29;20221;-73
2023/09/09 08:55:02;;;;;;;8.35;7.55;;;25.80;99.90;;;;;;4916488;29;20250;-76
2023/09/09 08:57:31;;;;;;;8.70;7.57;;;26.10;99.90;;;;;;4916702;29;20198;-72
2023/09/09 08:59:59;;;;;;;8.93;7.72;;;26.30;99.90;;;;;;4916416;29;20212;-73
2023/09/09 09:02:26;;;;;;;8.75;7.95;;;26.40;99.90;;;;;;4916567;29;20198;-72
2023/09/09 09:04:55;;;;;;;9.02;8.13;;;26.40;99.90;;;;;;4916446;29;20281;-72
2023/09/09 09:07:22;;;;;;;8.70;7.80;;;26.60;99.90;;;;;;4916125;29;20206;-72
2023/09/09 09:09:49;;;;;;;9.50;8.48;;;26.80;99.90;;;;;;4916549;29;20203;-72
2023/09/09 09:12:15;;;;;;;8.43;7.63;;;27.10;99.90;;;;;;4916026;29;20202;-72
2023/09/09 09:14:46;;;;;;;8.40;7.68;;;27.20;99.90;;;;;;4916385;29;20210;-71
2023/09/09 09:17:15;;;;;;;9.70;8.65;;;27.50;99.90;;;;;;4916503;29;20211;-71
2023/09/09 09:19:42;;;;;;;8.25;7.45;;;27.90;99.90;;;;;;4916288;29;20198;-71
2023/09/09 09:22:12;;;;;;;9.23;8.32;;;27.80;99.90;;;;;;4916277;29;20250;-71
2023/09/09 09:24:42;;;;;;;8.77;7.55;;;27.70;99.90;;;;;;4916121;29;20207;-71
2023/09/09 09:27:10;;;;;;;8.95;8.05;;;27.80;99.90;;;;;;4916358;29;20209;-71
2023/09/09 09:29:40;;;;;;;9.27;8.38;;;28.10;99.90;;;;;;4916209;29;20206;-70
2023/09/09 09:32:07;;;;;;;8.35;7.47;;;28.50;99.90;;;;;;4915962;29;20293;-71
2023/09/09 09:34:35;;;;;;;9.23;8.27;;;28.60;99.90;;;;;;4916329;29;20210;-72
2023/09/09 09:37:04;;;;;;;9.00;8.20;;;28.80;99.90;;;;;;4916093;29;20725;-71
2023/09/09 09:39:35;;;;;;;9.15;8.18;;;28.30;99.70;;;;;;4916221;29;20202;-71
2023/09/09 09:42:02;;;;;;;8.50;7.70;;;28.50;99.70;;;;;;4916033;29;20202;-71
2023/09/09 09:44:29;;;;;;;9.68;8.68;;;29.00;98.60;;;;;;4915955;29;20203;-71
2023/09/09 09:47:06;;;;;;;10.10;9.20;;;29.30;98.30;;;;;;4915904;29;20234;-71
2023/09/09 09:49:37;;;;;;;9.40;8.68;;;29.40;97.80;;;;;;4916418;29;20569;-71
2023/09/09 09:52:04;;;;;;;9.30;8.40;;;29.10;97.80;;;;;;4916100;29;20234;-71
2023/09/09 09:54:32;;;;;;;9.23;8.32;;;29.50;97.60;;;;;;4915984;29;20237;-83
2023/09/09 09:57:02;;;;;;;9.07;7.88;;;29.60;97.30;;;;;;4916166;29;20203;-71
2023/09/09 09:59:31;;;;;;;9.07;8.27;;;30.20;96.60;;;;;;4916114;29;20206;-71
2023/09/09 10:01:59;;;;;;;8.65;7.95;;;30.00;95.40;;;;;;4915920;29;20282;-75
2023/09/09 10:04:27;;;;;;;8.35;7.55;;;29.90;95.80;;;;;;4916084;29;20210;-71
2023/09/09 10:06:57;;;;;;;9.32;8.43;;;29.80;95.80;;;;;;4916076;29;20709;-71
2023/09/09 10:09:32;;;;;;;9.00;8.20;;;29.50;95.60;;;;;;4916130;29;20289;-71
2023/09/09 10:12:05;;;;;;;7.97;7.38;;;30.10;95.20;;;;;;4916112;29;20261;-71
2023/09/09 10:14:35;;;;;;;9.23;7.68;;;30.70;94.70;;;;;;4916352;29;20204;-71
2023/09/09 10:17:06;;;;;;;9.95;7.95;;;31.50;94.50;;;;;;4916124;29;20217;-71
2023/09/09 10:19:35;;;;;;;8.60;7.03;;;31.30;93.40;;;;;;4916093;29;20202;-71
2023/09/09 10:22:03;;;;;;;8.10;7.47;;;31.50;92.80;;;;;;4915958;29;20218;-72
2023/09/09 10:24:30;;;;;;;8.75;7.95;;;31.80;91.80;;;;;;4916237;29;20206;-71
2023/09/09 10:26:59;;;;;;;8.57;7.78;;;31.60;92.00;;;;;;4916040;29;20281;-71
2023/09/09 10:29:29;;;;;;;7.90;7.05;;;32.00;91.30;;;;;;4916080;29;20198;-71
2023/09/09 10:31:58;;;;;;;10.65;8.25;;;32.50;91.10;;;;;;4915994;29;20202;-72
2023/09/09 10:34:25;;;;;;;8.05;7.20;;;32.50;89.80;;;;;;4919397;29;20205;-71
2023/09/09 10:36:52;;;;;;;7.80;7.10;;;32.50;90.10;;;;;;4919220;29;20253;-72
2023/09/09 10:39:22;;;;;;;8.02;7.22;;;33.50;87.80;;;;;;4918951;29;20204;-71
2023/09/09 10:41:50;;;;;;;8.10;7.40;;;33.70;86.60;;;;;;4919098;29;20633;-70
2023/09/09 10:44:16;;;;;;;7.68;6.90;;;33.90;85.20;;;;;;4919271;29;20205;-70
2023/09/09 10:46:44;;;;;;;8.20;7.00;;;34.10;84.20;;;;;;4918966;29;20285;-72
2023/09/09 10:49:15;;;;;;;7.30;6.50;;;35.30;82.00;;;;;;4918770;29;20202;-71
2023/09/09 10:51:47;;;;;;;9.65;6.65;;;36.40;78.10;;;;;;4919063;29;20201;-73
2023/09/09 10:54:15;;;;;;;8.10;7.30;;;36.50;73.90;;;;;;4918689;29;20241;-71
2023/09/09 10:56:46;;;;;;;8.50;7.70;;;36.00;72.70;;;;;;4919054;29;20289;-71
2023/09/09 10:59:17;;;;;;;9.25;7.15;;;35.70;71.50;;;;;;4918872;29;20289;-72
2023/09/09 11:01:45;;;;;;;7.90;7.20;;;35.40;71.60;;;;;;4918600;29;20201;-72
2023/09/09 11:04:20;;;;;;;10.35;7.30;;;35.30;71.60;;;;;;4918961;29;20235;-71
2023/09/09 11:06:59;;;;;;;7.47;6.80;;;35.80;69.70;;;;;;4918707;29;20256;-71
2023/09/09 11:09:29;;;;;;;7.07;6.47;;;36.60;67.30;;;;;;4918972;29;20692;-72
2023/09/09 11:11:56;;;;;;;9.13;7.20;;;37.40;65.80;;;;;;4918663;29;20214;-72
2023/09/09 11:14:29;;;;;;;6.97;6.38;;;37.50;63.60;;;;;;4918670;29;20213;-72
2023/09/09 11:16:57;;;;;;;7.25;6.55;;;37.80;62.80;;;;;;4918765;29;20198;-72
2023/09/09 11:19:24;;;;;;;9.73;7.00;;;38.00;61.20;;;;;;4918633;29;20198;-72
2023/09/09 11:21:52;;;;;;;7.40;6.78;;;37.70;59.70;;;;;;4918510;29;20246;-72
2023/09/09 11:24:19;;;;;;;7.03;6.47;;;37.50;60.70;;;;;;4918559;29;20206;-72
2023/09/09 11:26:47;;;;;;;7.40;6.65;;;38.90;59.60;;;;;;4918192;29;20251;-72
2023/09/09 11:29:15;;;;;;;11.70;7.45;;;39.10;57.30;;;;;;4918821;29;20257;-72
2023/09/09 11:31:42;;;;;;;6.97;6.30;;;38.80;55.80;;;;;;4918415;29;20201;-72
2023/09/09 11:34:10;;;;;;;7.93;7.28;;;37.20;58.30;;;;;;4918313;29;20205;-72
2023/09/09 11:36:36;;;;;;;7.85;7.00;;;36.20;58.40;;;;;;4918247;29;20820;-72
2023/09/09 11:39:03;;;;;;;8.18;7.38;;;36.00;59.20;;;;;;4918144;29;20206;-72
2023/09/09 11:41:32;;;;;;;7.40;6.80;;;37.40;57.90;;;;;;4918122;29;20252;-72
2023/09/09 11:44:00;;;;;;;6.90;6.28;;;38.20;57.20;;;;;;4918164;29;20355;-72
2023/09/09 11:46:27;;;;;;;7.10;6.40;;;39.20;56.10;;;;;;4917903;29;20742;-72
2023/09/09 11:48:54;;;;;;;6.82;6.10;;;38.90;55.70;;;;;;4918196;29;20207;-72
2023/09/09 11:51:23;;;;;;;6.82;6.20;;;39.40;54.60;;;;;;4917973;29;20574;-72
2023/09/09 11:53:50;;;;;;;7.55;6.88;;;39.90;53.00;;;;;;4917841;29;20233;-72
2023/09/09 11:56:19;;;;;;;8.65;6.60;;;39.70;53.00;;;;;;4917749;29;20871;-72
2023/09/09 11:58:46;;;;;;;7.03;6.35;;;38.50;52.90;;;;;;4917986;29;20253;-72
2023/09/09 12:01:13;;;;;;;7.90;7.20;;;38.50;53.40;;;;;;4917867;29;20257;-72
2023/09/09 12:03:40;;;;;;;6.90;6.20;;;38.20;53.20;;;;;;4917669;29;20249;-72
2023/09/09 12:06:09;;;;;;;6.78;6.20;;;39.30;52.30;;;;;;4917634;29;20240;-72
2023/09/09 12:08:37;;;;;;;8.07;6.70;;;39.10;52.60;;;;;;4917669;29;20253;-72
2023/09/09 12:11:06;;;;;;;8.13;6.57;;;38.20;52.30;;;;;;4917760;29;20650;-72
2023/09/09 12:13:34;;;;;;;6.70;6.05;;;38.20;52.70;;;;;;4917622;29;20202;-72
2023/09/09 12:16:02;;;;;;;6.80;6.20;;;39.80;52.00;;;;;;4917694;29;20259;-72
2023/09/09 12:18:28;;;;;;;7.03;6.43;;;40.30;48.60;;;;;;4917608;29;20216;-72
2023/09/09 12:20:58;;;;;;;6.68;6.07;;;39.20;47.60;;;;;;4917402;29;20206;-72
2023/09/09 12:23:29;;;;;;;7.43;6.53;;;37.80;49.60;;;;;;4917497;29;20602;-72
2023/09/09 12:25:57;;;;;;;7.05;6.35;;;38.20;49.10;;;;;;4917385;29;20233;-71
2023/09/09 12:28:24;;;;;;;7.32;6.82;;;38.40;50.10;;;;;;4917316;29;20232;-72
2023/09/09 12:30:52;;;;;;;9.55;6.75;;;37.70;50.00;;;;;;4917269;29;20202;-72
2023/09/09 12:33:19;;;;;;;10.05;6.45;;;38.40;48.50;;;;;;4917128;29;20689;-72
2023/09/09 12:35:47;;;;;;;7.05;6.43;;;38.30;48.60;;;;;;4917436;29;20227;-72